sensor_id;sensor_type;location;lat;lon;timestamp;noise_LAeq;noise_LA_min;noise_LA_max;noise_LA01;noise_LA95
63692;Laerm;49838;51.798;10.954;2024-02-26T00:01:53;41.30;31.13;51.90;;
63692;Laerm;49838;51.798;10.954;2024-02-26T00:04:22;38.72;29.34;51.36;;
63692;Laerm;49838;51.798;10.954;2024-02-26T00:06:49;35.78;29.35;45.30;;
63692;Laerm;49838;51.798;10.954;2024-02-26T00:09:20;40.16;29.60;49.00;;
63692;Laerm;49838;51.798;10.954;2024-02-26T00:11:47;32.94;28.30;44.57;;
63692;Laerm;49838;51.798;10.954;2024-02-26T00:14:14;39.39;29.65;51.21;;
63692;Laerm;49838;51.798;10.954;2024-02-26T00:16:41;37.42;29.50;46.20;;
63692;Laerm;49838;51.798;10.954;2024-02-26T00:19:11;39.47;30.27;50.16;;
63692;Laerm;49838;51.798;10.954;2024-02-26T00:21:41;43.80;29.96;55.10;;
63692;Laerm;49838;51.798;10.954;2024-02-26T00:24:08;39.80;30.41;53.00;;
63692;Laerm;49838;51.798;10.954;2024-02-26T00:26:35;41.19;31.92;49.61;;
63692;Laerm;49838;51.798;10.954;2024-02-26T00:29:03;45.15;34.90;52.93;;
63692;Laerm;49838;51.798;10.954;2024-02-26T00:31:30;43.64;31.10;55.40;;
63692;Laerm;49838;51.798;10.954;2024-02-26T00:33:57;37.71;30.14;46.70;;
63692;Laerm;49838;51.798;10.954;2024-02-26T00:36:25;37.09;29.61;46.89;;
63692;Laerm;49838;51.798;10.954;2024-02-26T00:38:53;40.62;29.52;53.43;;
63692;Laerm;49838;51.798;10.954;2024-02-26T00:41:21;41.32;32.83;53.30;;
63692;Laerm;49838;51.798;10.954;2024-02-26T00:43:48;40.00;31.52;53.59;;
63692;Laerm;49838;51.798;10.954;2024-02-26T00:46:15;40.80;30.48;53.69;;
63692;Laerm;49838;51.798;10.954;2024-02-26T00:48:43;40.46;31.23;52.19;;
63692;Laerm;49838;51.798;10.954;2024-02-26T00:51:10;42.24;34.59;54.53;;
63692;Laerm;49838;51.798;10.954;2024-02-26T00:53:37;41.68;31.74;53.26;;
63692;Laerm;49838;51.798;10.954;2024-02-26T00:56:06;41.37;29.41;57.75;;
63692;Laerm;49838;51.798;10.954;2024-02-26T00:58:33;40.93;29.89;51.23;;
63692;Laerm;49838;51.798;10.954;2024-02-26T01:01:00;43.46;32.96;61.43;;
63692;Laerm;49838;51.798;10.954;2024-02-26T01:03:29;41.89;30.57;55.60;;
63692;Laerm;49838;51.798;10.954;2024-02-26T01:05:56;40.01;32.11;51.91;;
63692;Laerm;49838;51.798;10.954;2024-02-26T01:08:23;41.85;33.21;50.71;;
63692;Laerm;49838;51.798;10.954;2024-02-26T01:10:50;41.60;31.31;50.99;;
63692;Laerm;49838;51.798;10.954;2024-02-26T01:13:19;38.65;29.79;49.12;;
63692;Laerm;49838;51.798;10.954;2024-02-26T01:15:46;37.19;28.57;49.27;;
63692;Laerm;49838;51.798;10.954;2024-02-26T01:18:13;40.17;32.56;56.78;;
63692;Laerm;49838;51.798;10.954;2024-02-26T01:20:41;34.80;28.71;50.63;;
63692;Laerm;49838;51.798;10.954;2024-02-26T01:23:08;37.82;29.31;59.11;;
63692;Laerm;49838;51.798;10.954;2024-02-26T01:25:35;38.46;32.19;46.30;;
63692;Laerm;49838;51.798;10.954;2024-02-26T01:28:03;41.97;32.15;50.85;;
63692;Laerm;49838;51.798;10.954;2024-02-26T01:30:31;38.20;31.50;62.60;;
63692;Laerm;49838;51.798;10.954;2024-02-26T01:32:59;35.88;29.15;46.58;;
63692;Laerm;49838;51.798;10.954;2024-02-26T01:35:26;38.12;29.75;47.42;;
63692;Laerm;49838;51.798;10.954;2024-02-26T01:37:53;37.58;30.68;46.30;;
63692;Laerm;49838;51.798;10.954;2024-02-26T01:40:20;37.14;31.11;44.00;;
63692;Laerm;49838;51.798;10.954;2024-02-26T01:42:48;39.96;34.55;54.32;;
63692;Laerm;49838;51.798;10.954;2024-02-26T01:45:16;40.48;35.34;47.82;;
63692;Laerm;49838;51.798;10.954;2024-02-26T01:47:50;41.18;34.95;47.29;;
63692;Laerm;49838;51.798;10.954;2024-02-26T01:50:18;36.80;31.30;44.18;;
63692;Laerm;49838;51.798;10.954;2024-02-26T01:52:46;38.03;31.44;48.41;;
63692;Laerm;49838;51.798;10.954;2024-02-26T01:55:14;37.13;29.46;60.33;;
63692;Laerm;49838;51.798;10.954;2024-02-26T01:57:44;34.06;29.55;42.42;;
63692;Laerm;49838;51.798;10.954;2024-02-26T02:00:12;36.50;29.76;48.55;;
63692;Laerm;49838;51.798;10.954;2024-02-26T02:02:42;39.78;31.20;51.71;;
63692;Laerm;49838;51.798;10.954;2024-02-26T02:05:14;42.14;30.30;54.77;;
63692;Laerm;49838;51.798;10.954;2024-02-26T02:07:43;37.44;29.72;49.28;;
63692;Laerm;49838;51.798;10.954;2024-02-26T02:10:10;40.33;31.15;50.27;;
63692;Laerm;49838;51.798;10.954;2024-02-26T02:12:38;57.76;35.49;78.32;;
63692;Laerm;49838;51.798;10.954;2024-02-26T02:15:06;43.58;30.63;54.40;;
63692;Laerm;49838;51.798;10.954;2024-02-26T02:17:34;41.24;32.51;49.45;;
63692;Laerm;49838;51.798;10.954;2024-02-26T02:20:01;45.40;33.64;54.39;;
63692;Laerm;49838;51.798;10.954;2024-02-26T02:22:31;38.68;29.70;47.11;;
63692;Laerm;49838;51.798;10.954;2024-02-26T02:24:59;40.64;30.74;50.10;;
63692;Laerm;49838;51.798;10.954;2024-02-26T02:27:27;46.27;36.42;54.12;;
63692;Laerm;49838;51.798;10.954;2024-02-26T02:29:56;43.68;35.80;51.74;;
63692;Laerm;49838;51.798;10.954;2024-02-26T02:32:24;43.66;34.47;54.73;;
63692;Laerm;49838;51.798;10.954;2024-02-26T02:34:52;41.12;35.70;48.34;;
63692;Laerm;49838;51.798;10.954;2024-02-26T02:37:20;41.49;34.48;48.77;;
63692;Laerm;49838;51.798;10.954;2024-02-26T02:39:48;42.71;37.21;48.45;;
63692;Laerm;49838;51.798;10.954;2024-02-26T02:42:15;43.12;36.33;48.01;;
63692;Laerm;49838;51.798;10.954;2024-02-26T02:44:43;43.76;35.04;52.34;;
63692;Laerm;49838;51.798;10.954;2024-02-26T02:47:10;41.42;34.38;51.12;;
63692;Laerm;49838;51.798;10.954;2024-02-26T02:49:37;41.73;36.36;49.29;;
63692;Laerm;49838;51.798;10.954;2024-02-26T02:52:05;41.04;34.33;46.15;;
63692;Laerm;49838;51.798;10.954;2024-02-26T02:54:32;47.92;37.37;56.34;;
63692;Laerm;49838;51.798;10.954;2024-02-26T02:57:01;49.26;41.85;55.92;;
63692;Laerm;49838;51.798;10.954;2024-02-26T02:59:28;45.25;36.22;53.47;;
63692;Laerm;49838;51.798;10.954;2024-02-26T03:01:55;44.54;36.83;56.03;;
63692;Laerm;49838;51.798;10.954;2024-02-26T03:04:22;46.95;36.51;58.81;;
63692;Laerm;49838;51.798;10.954;2024-02-26T03:06:50;46.51;39.00;53.69;;
63692;Laerm;49838;51.798;10.954;2024-02-26T03:09:17;50.51;40.44;58.45;;
63692;Laerm;49838;51.798;10.954;2024-02-26T03:11:44;47.52;37.99;55.28;;
63692;Laerm;49838;51.798;10.954;2024-02-26T03:14:13;49.60;41.07;55.23;;
63692;Laerm;49838;51.798;10.954;2024-02-26T03:16:40;48.88;39.14;56.24;;
63692;Laerm;49838;51.798;10.954;2024-02-26T03:19:07;44.27;37.36;51.05;;
63692;Laerm;49838;51.798;10.954;2024-02-26T03:21:34;54.58;38.91;72.84;;
63692;Laerm;49838;51.798;10.954;2024-02-26T03:24:02;53.35;41.44;72.45;;
63692;Laerm;49838;51.798;10.954;2024-02-26T03:26:29;47.79;41.24;55.45;;
63692;Laerm;49838;51.798;10.954;2024-02-26T03:28:57;46.39;38.55;62.05;;
63692;Laerm;49838;51.798;10.954;2024-02-26T03:31:26;44.81;33.86;52.61;;
63692;Laerm;49838;51.798;10.954;2024-02-26T03:33:53;45.47;38.47;56.18;;
63692;Laerm;49838;51.798;10.954;2024-02-26T03:36:21;56.88;38.89;74.28;;
63692;Laerm;49838;51.798;10.954;2024-02-26T03:38:48;47.79;41.59;54.72;;
63692;Laerm;49838;51.798;10.954;2024-02-26T03:41:15;46.98;42.14;53.39;;
63692;Laerm;49838;51.798;10.954;2024-02-26T03:43:42;56.70;39.73;76.96;;
63692;Laerm;49838;51.798;10.954;2024-02-26T03:46:11;48.88;42.62;57.91;;
63692;Laerm;49838;51.798;10.954;2024-02-26T03:48:41;49.85;44.22;61.62;;
63692;Laerm;49838;51.798;10.954;2024-02-26T03:51:08;49.35;43.59;55.34;;
63692;Laerm;49838;51.798;10.954;2024-02-26T03:53:36;49.01;42.25;56.20;;
63692;Laerm;49838;51.798;10.954;2024-02-26T03:56:04;48.92;41.93;60.42;;
63692;Laerm;49838;51.798;10.954;2024-02-26T03:58:31;52.03;38.84;69.05;;
63692;Laerm;49838;51.798;10.954;2024-02-26T04:00:59;46.70;39.03;54.35;;
63692;Laerm;49838;51.798;10.954;2024-02-26T04:03:26;47.24;39.87;57.94;;
63692;Laerm;49838;51.798;10.954;2024-02-26T04:05:55;49.92;40.81;63.69;;
63692;Laerm;49838;51.798;10.954;2024-02-26T04:08:22;47.39;40.76;60.11;;
63692;Laerm;49838;51.798;10.954;2024-02-26T04:10:49;47.43;42.36;54.40;;
63692;Laerm;49838;51.798;10.954;2024-02-26T04:13:17;47.60;39.51;54.36;;
63692;Laerm;49838;51.798;10.954;2024-02-26T04:15:44;48.85;43.10;56.55;;
63692;Laerm;49838;51.798;10.954;2024-02-26T04:18:12;52.81;44.44;69.69;;
63692;Laerm;49838;51.798;10.954;2024-02-26T04:20:40;48.24;41.69;58.11;;
63692;Laerm;49838;51.798;10.954;2024-02-26T04:23:09;46.96;42.61;51.39;;
63692;Laerm;49838;51.798;10.954;2024-02-26T04:25:36;48.02;42.64;61.06;;
63692;Laerm;49838;51.798;10.954;2024-02-26T04:28:04;54.22;43.51;70.70;;
63692;Laerm;49838;51.798;10.954;2024-02-26T04:30:31;56.05;44.46;69.74;;
63692;Laerm;49838;51.798;10.954;2024-02-26T04:32:59;47.84;41.97;64.17;;
63692;Laerm;49838;51.798;10.954;2024-02-26T04:35:26;49.50;41.86;56.34;;
63692;Laerm;49838;51.798;10.954;2024-02-26T04:37:53;55.96;44.37;70.92;;
63692;Laerm;49838;51.798;10.954;2024-02-26T04:40:22;53.41;44.46;67.98;;
63692;Laerm;49838;51.798;10.954;2024-02-26T04:42:49;48.77;42.87;55.90;;
63692;Laerm;49838;51.798;10.954;2024-02-26T04:45:17;48.74;44.32;53.41;;
63692;Laerm;49838;51.798;10.954;2024-02-26T04:47:44;52.88;42.09;68.84;;
63692;Laerm;49838;51.798;10.954;2024-02-26T04:50:11;48.00;42.51;56.35;;
63692;Laerm;49838;51.798;10.954;2024-02-26T04:52:38;54.43;44.26;71.41;;
63692;Laerm;49838;51.798;10.954;2024-02-26T04:55:06;47.26;41.82;61.23;;
63692;Laerm;49838;51.798;10.954;2024-02-26T04:57:35;50.47;43.20;65.29;;
63692;Laerm;49838;51.798;10.954;2024-02-26T05:00:03;56.48;42.59;74.00;;
63692;Laerm;49838;51.798;10.954;2024-02-26T05:02:31;47.04;41.82;54.83;;
63692;Laerm;49838;51.798;10.954;2024-02-26T05:04:59;57.50;42.05;76.67;;
63692;Laerm;49838;51.798;10.954;2024-02-26T05:07:26;55.13;43.76;71.38;;
63692;Laerm;49838;51.798;10.954;2024-02-26T05:09:53;51.89;44.03;64.67;;
63692;Laerm;49838;51.798;10.954;2024-02-26T05:12:21;51.36;42.13;66.80;;
63692;Laerm;49838;51.798;10.954;2024-02-26T05:14:50;48.70;43.76;60.94;;
63692;Laerm;49838;51.798;10.954;2024-02-26T05:17:17;54.73;44.78;69.96;;
63692;Laerm;49838;51.798;10.954;2024-02-26T05:19:45;49.08;43.56;58.12;;
63692;Laerm;49838;51.798;10.954;2024-02-26T05:22:12;55.22;46.99;73.15;;
63692;Laerm;49838;51.798;10.954;2024-02-26T05:24:39;53.73;46.38;67.67;;
63692;Laerm;49838;51.798;10.954;2024-02-26T05:27:06;57.33;47.17;70.44;;
63692;Laerm;49838;51.798;10.954;2024-02-26T05:29:34;55.87;45.90;68.80;;
63692;Laerm;49838;51.798;10.954;2024-02-26T05:32:03;56.71;46.78;74.26;;
63692;Laerm;49838;51.798;10.954;2024-02-26T05:34:30;64.49;45.37;80.35;;
63692;Laerm;49838;51.798;10.954;2024-02-26T05:36:59;58.27;45.32;71.42;;
63692;Laerm;49838;51.798;10.954;2024-02-26T05:39:26;54.55;44.38;71.55;;
63692;Laerm;49838;51.798;10.954;2024-02-26T05:41:53;59.08;45.67;74.51;;
63692;Laerm;49838;51.798;10.954;2024-02-26T05:44:22;57.97;46.33;76.08;;
63692;Laerm;49838;51.798;10.954;2024-02-26T05:46:49;61.48;46.72;76.06;;
63692;Laerm;49838;51.798;10.954;2024-02-26T05:49:18;59.55;46.46;75.99;;
63692;Laerm;49838;51.798;10.954;2024-02-26T05:51:45;57.55;46.83;73.20;;
63692;Laerm;49838;51.798;10.954;2024-02-26T05:54:12;60.26;47.52;73.74;;
63692;Laerm;49838;51.798;10.954;2024-02-26T05:56:40;59.45;46.00;78.07;;
63692;Laerm;49838;51.798;10.954;2024-02-26T05:59:07;53.48;44.86;70.71;;
63692;Laerm;49838;51.798;10.954;2024-02-26T06:01:34;54.62;45.68;72.41;;
63692;Laerm;49838;51.798;10.954;2024-02-26T06:04:01;56.08;46.55;71.98;;
63692;Laerm;49838;51.798;10.954;2024-02-26T06:06:30;58.44;45.57;74.69;;
63692;Laerm;49838;51.798;10.954;2024-02-26T06:08:58;53.16;45.65;68.22;;
63692;Laerm;49838;51.798;10.954;2024-02-26T06:11:25;60.70;46.21;77.67;;
63692;Laerm;49838;51.798;10.954;2024-02-26T06:13:53;60.27;47.51;76.28;;
63692;Laerm;49838;51.798;10.954;2024-02-26T06:16:20;57.74;48.09;71.81;;
63692;Laerm;49838;51.798;10.954;2024-02-26T06:18:47;59.81;47.59;72.78;;
63692;Laerm;49838;51.798;10.954;2024-02-26T06:21:15;64.49;48.61;82.62;;
63692;Laerm;49838;51.798;10.954;2024-02-26T06:23:43;63.60;49.75;77.96;;
63692;Laerm;49838;51.798;10.954;2024-02-26T06:26:10;60.24;50.08;71.81;;
63692;Laerm;49838;51.798;10.954;2024-02-26T06:28:38;61.46;49.36;73.46;;
63692;Laerm;49838;51.798;10.954;2024-02-26T06:31:06;58.67;49.13;70.08;;
63692;Laerm;49838;51.798;10.954;2024-02-26T06:33:34;64.72;51.56;79.97;;
63692;Laerm;49838;51.798;10.954;2024-02-26T06:36:01;62.86;48.17;74.15;;
63692;Laerm;49838;51.798;10.954;2024-02-26T06:38:28;57.18;46.61;71.79;;
63692;Laerm;49838;51.798;10.954;2024-02-26T06:40:57;60.75;47.10;78.52;;
63692;Laerm;49838;51.798;10.954;2024-02-26T06:43:24;60.73;48.59;75.34;;
63692;Laerm;49838;51.798;10.954;2024-02-26T06:45:51;59.96;47.42;71.95;;
63692;Laerm;49838;51.798;10.954;2024-02-26T06:48:18;57.99;46.24;74.13;;
63692;Laerm;49838;51.798;10.954;2024-02-26T06:50:46;58.64;46.28;71.66;;
63692;Laerm;49838;51.798;10.954;2024-02-26T06:53:13;61.97;45.15;80.67;;
63692;Laerm;49838;51.798;10.954;2024-02-26T06:55:40;59.63;44.87;76.98;;
63692;Laerm;49838;51.798;10.954;2024-02-26T06:58:09;55.95;44.22;69.06;;
63692;Laerm;49838;51.798;10.954;2024-02-26T07:00:36;56.14;44.18;72.56;;
63692;Laerm;49838;51.798;10.954;2024-02-26T07:03:04;59.55;44.69;73.37;;
63692;Laerm;49838;51.798;10.954;2024-02-26T07:05:31;58.29;46.01;72.33;;
63692;Laerm;49838;51.798;10.954;2024-02-26T07:07:58;58.61;44.92;75.85;;
63692;Laerm;49838;51.798;10.954;2024-02-26T07:10:26;60.69;47.42;74.56;;
63692;Laerm;49838;51.798;10.954;2024-02-26T07:12:53;52.31;45.02;64.98;;
63692;Laerm;49838;51.798;10.954;2024-02-26T07:15:21;60.25;45.52;76.43;;
63692;Laerm;49838;51.798;10.954;2024-02-26T07:17:49;58.27;45.05;76.27;;
63692;Laerm;49838;51.798;10.954;2024-02-26T07:20:16;60.35;45.44;76.77;;
63692;Laerm;49838;51.798;10.954;2024-02-26T07:22:44;57.27;44.76;70.92;;
63692;Laerm;49838;51.798;10.954;2024-02-26T07:25:11;55.22;44.33;71.28;;
63692;Laerm;49838;51.798;10.954;2024-02-26T07:27:39;60.57;44.68;74.98;;
63692;Laerm;49838;51.798;10.954;2024-02-26T07:30:07;57.08;45.17;73.20;;
63692;Laerm;49838;51.798;10.954;2024-02-26T07:32:36;59.13;45.09;74.70;;
63692;Laerm;49838;51.798;10.954;2024-02-26T07:35:04;61.60;46.02;77.87;;
63692;Laerm;49838;51.798;10.954;2024-02-26T07:37:32;58.99;44.45;72.33;;
63692;Laerm;49838;51.798;10.954;2024-02-26T07:39:59;60.27;42.15;78.72;;
63692;Laerm;49838;51.798;10.954;2024-02-26T07:42:26;59.29;44.46;74.45;;
63692;Laerm;49838;51.798;10.954;2024-02-26T07:44:53;57.43;45.24;72.16;;
63692;Laerm;49838;51.798;10.954;2024-02-26T07:47:21;51.76;41.28;70.72;;
63692;Laerm;49838;51.798;10.954;2024-02-26T07:49:50;56.21;43.30;71.72;;
63692;Laerm;49838;51.798;10.954;2024-02-26T07:52:17;60.46;41.83;85.06;;
63692;Laerm;49838;51.798;10.954;2024-02-26T07:54:44;60.55;44.03;77.32;;
63692;Laerm;49838;51.798;10.954;2024-02-26T07:57:12;61.52;43.80;79.15;;
63692;Laerm;49838;51.798;10.954;2024-02-26T07:59:42;47.11;42.60;55.92;;
63692;Laerm;49838;51.798;10.954;2024-02-26T08:02:10;56.93;43.44;72.44;;
63692;Laerm;49838;51.798;10.954;2024-02-26T08:04:38;57.11;44.35;70.12;;
63692;Laerm;49838;51.798;10.954;2024-02-26T08:07:06;53.68;43.87;67.34;;
63692;Laerm;49838;51.798;10.954;2024-02-26T08:09:34;58.00;43.82;73.15;;
63692;Laerm;49838;51.798;10.954;2024-02-26T08:12:01;53.31;43.52;71.68;;
63692;Laerm;49838;51.798;10.954;2024-02-26T08:14:28;56.99;41.64;72.15;;
63692;Laerm;49838;51.798;10.954;2024-02-26T08:16:55;57.46;42.94;71.99;;
63692;Laerm;49838;51.798;10.954;2024-02-26T08:19:23;60.83;43.87;74.17;;
63692;Laerm;49838;51.798;10.954;2024-02-26T08:21:50;60.82;44.14;76.42;;
63692;Laerm;49838;51.798;10.954;2024-02-26T08:24:18;63.38;43.74;80.75;;
63692;Laerm;49838;51.798;10.954;2024-02-26T08:26:46;58.79;43.65;72.00;;
63692;Laerm;49838;51.798;10.954;2024-02-26T08:29:13;59.59;43.34;71.77;;
63692;Laerm;49838;51.798;10.954;2024-02-26T08:31:40;61.03;41.66;75.30;;
63692;Laerm;49838;51.798;10.954;2024-02-26T08:34:08;61.73;43.91;85.10;;
63692;Laerm;49838;51.798;10.954;2024-02-26T08:36:35;56.48;43.39;74.01;;
63692;Laerm;49838;51.798;10.954;2024-02-26T08:39:02;65.81;43.33;85.90;;
63692;Laerm;49838;51.798;10.954;2024-02-26T08:41:31;58.81;42.07;70.46;;
63692;Laerm;49838;51.798;10.954;2024-02-26T08:43:58;57.70;42.54;72.82;;
63692;Laerm;49838;51.798;10.954;2024-02-26T08:46:25;58.89;43.61;73.87;;
63692;Laerm;49838;51.798;10.954;2024-02-26T08:48:53;62.34;44.56;72.03;;
63692;Laerm;49838;51.798;10.954;2024-02-26T08:51:20;58.90;43.67;71.99;;
63692;Laerm;49838;51.798;10.954;2024-02-26T08:53:47;59.31;42.83;71.62;;
63692;Laerm;49838;51.798;10.954;2024-02-26T08:56:16;54.86;42.19;71.27;;
63692;Laerm;49838;51.798;10.954;2024-02-26T08:58:45;56.93;40.31;71.17;;
63692;Laerm;49838;51.798;10.954;2024-02-26T09:01:14;57.55;44.06;71.39;;
63692;Laerm;49838;51.798;10.954;2024-02-26T09:03:42;58.96;42.77;73.87;;
63692;Laerm;49838;51.798;10.954;2024-02-26T09:06:09;55.25;41.92;71.76;;
63692;Laerm;49838;51.798;10.954;2024-02-26T09:08:37;65.17;43.78;84.03;;
63692;Laerm;49838;51.798;10.954;2024-02-26T09:11:05;56.09;40.60;72.35;;
63692;Laerm;49838;51.798;10.954;2024-02-26T09:13:32;55.53;43.08;69.04;;
63692;Laerm;49838;51.798;10.954;2024-02-26T09:16:01;59.17;44.59;74.22;;
63692;Laerm;49838;51.798;10.954;2024-02-26T09:18:28;58.89;42.76;72.19;;
63692;Laerm;49838;51.798;10.954;2024-02-26T09:20:55;60.15;42.91;76.62;;
63692;Laerm;49838;51.798;10.954;2024-02-26T09:23:23;59.07;43.60;73.13;;
63692;Laerm;49838;51.798;10.954;2024-02-26T09:25:50;62.41;43.20;76.16;;
63692;Laerm;49838;51.798;10.954;2024-02-26T09:28:17;57.55;44.54;75.04;;
63692;Laerm;49838;51.798;10.954;2024-02-26T09:30:45;60.67;44.28;78.93;;
63692;Laerm;49838;51.798;10.954;2024-02-26T09:33:14;54.16;43.93;69.62;;
63692;Laerm;49838;51.798;10.954;2024-02-26T09:35:41;59.60;44.05;72.46;;
63692;Laerm;49838;51.798;10.954;2024-02-26T09:38:09;59.22;43.82;77.14;;
63692;Laerm;49838;51.798;10.954;2024-02-26T09:40:36;56.55;42.89;70.29;;
63692;Laerm;49838;51.798;10.954;2024-02-26T09:43:04;62.44;44.05;74.99;;
63692;Laerm;49838;51.798;10.954;2024-02-26T09:45:33;59.50;45.55;73.39;;
63692;Laerm;49838;51.798;10.954;2024-02-26T09:48:01;61.85;41.81;79.31;;
63692;Laerm;49838;51.798;10.954;2024-02-26T09:50:31;59.88;42.65;74.55;;
63692;Laerm;49838;51.798;10.954;2024-02-26T09:52:59;58.59;45.60;73.36;;
63692;Laerm;49838;51.798;10.954;2024-02-26T09:55:28;60.73;45.40;74.19;;
63692;Laerm;49838;51.798;10.954;2024-02-26T09:57:55;60.08;41.65;74.32;;
63692;Laerm;49838;51.798;10.954;2024-02-26T10:00:25;56.44;40.92;71.84;;
63692;Laerm;49838;51.798;10.954;2024-02-26T10:02:55;58.23;41.68;76.42;;
63692;Laerm;49838;51.798;10.954;2024-02-26T10:05:23;59.79;44.17;72.35;;
63692;Laerm;49838;51.798;10.954;2024-02-26T10:07:52;54.23;41.08;70.62;;
63692;Laerm;49838;51.798;10.954;2024-02-26T10:10:22;56.66;41.80;68.89;;
63692;Laerm;49838;51.798;10.954;2024-02-26T10:12:49;55.81;42.86;72.94;;
63692;Laerm;49838;51.798;10.954;2024-02-26T10:15:16;53.30;42.19;69.41;;
63692;Laerm;49838;51.798;10.954;2024-02-26T10:17:44;61.06;41.72;75.31;;
63692;Laerm;49838;51.798;10.954;2024-02-26T10:20:12;56.70;39.96;70.71;;
63692;Laerm;49838;51.798;10.954;2024-02-26T10:22:40;61.09;41.32;76.45;;
63692;Laerm;49838;51.798;10.954;2024-02-26T10:25:09;60.84;41.70;80.90;;
63692;Laerm;49838;51.798;10.954;2024-02-26T10:27:36;59.54;41.61;73.45;;
63692;Laerm;49838;51.798;10.954;2024-02-26T10:30:04;54.33;43.25;71.46;;
63692;Laerm;49838;51.798;10.954;2024-02-26T10:32:42;60.98;41.34;74.83;;
63692;Laerm;49838;51.798;10.954;2024-02-26T10:35:10;63.65;41.69;81.94;;
63692;Laerm;49838;51.798;10.954;2024-02-26T10:37:37;60.95;41.80;77.18;;
63692;Laerm;49838;51.798;10.954;2024-02-26T10:40:06;54.53;40.97;69.76;;
63692;Laerm;49838;51.798;10.954;2024-02-26T10:42:34;56.63;41.65;70.88;;
63692;Laerm;49838;51.798;10.954;2024-02-26T10:45:02;61.12;44.06;81.87;;
63692;Laerm;49838;51.798;10.954;2024-02-26T10:47:30;56.30;40.10;72.54;;
63692;Laerm;49838;51.798;10.954;2024-02-26T10:49:58;54.88;39.27;69.64;;
63692;Laerm;49838;51.798;10.954;2024-02-26T10:52:25;65.92;40.27;86.52;;
63692;Laerm;49838;51.798;10.954;2024-02-26T10:54:53;61.00;39.15;74.64;;
63692;Laerm;49838;51.798;10.954;2024-02-26T10:57:24;55.46;38.86;73.27;;
63692;Laerm;49838;51.798;10.954;2024-02-26T10:59:53;58.15;39.52;72.15;;
63692;Laerm;49838;51.798;10.954;2024-02-26T11:02:21;58.45;41.16;72.81;;
63692;Laerm;49838;51.798;10.954;2024-02-26T11:04:49;57.92;41.80;71.49;;
63692;Laerm;49838;51.798;10.954;2024-02-26T11:07:17;55.96;40.61;80.62;;
63692;Laerm;49838;51.798;10.954;2024-02-26T11:09:45;58.31;40.88;74.99;;
63692;Laerm;49838;51.798;10.954;2024-02-26T11:12:18;57.06;39.72;70.39;;
63692;Laerm;49838;51.798;10.954;2024-02-26T11:14:48;61.16;39.68;76.12;;
63692;Laerm;49838;51.798;10.954;2024-02-26T11:17:21;65.81;41.72;86.01;;
63692;Laerm;49838;51.798;10.954;2024-02-26T11:19:49;58.91;41.91;73.18;;
63692;Laerm;49838;51.798;10.954;2024-02-26T11:22:17;55.95;41.51;68.61;;
63692;Laerm;49838;51.798;10.954;2024-02-26T11:24:44;55.86;39.80;69.50;;
63692;Laerm;49838;51.798;10.954;2024-02-26T11:27:12;59.28;42.25;72.90;;
63692;Laerm;49838;51.798;10.954;2024-02-26T11:29:43;57.61;41.37;74.41;;
63692;Laerm;49838;51.798;10.954;2024-02-26T11:32:11;53.33;39.72;67.98;;
63692;Laerm;49838;51.798;10.954;2024-02-26T11:34:40;60.51;40.00;76.50;;
63692;Laerm;49838;51.798;10.954;2024-02-26T11:37:11;58.44;39.50;76.73;;
63692;Laerm;49838;51.798;10.954;2024-02-26T11:39:39;57.20;41.67;71.72;;
63692;Laerm;49838;51.798;10.954;2024-02-26T11:42:08;53.75;41.65;68.54;;
63692;Laerm;49838;51.798;10.954;2024-02-26T11:44:35;56.87;39.49;72.80;;
63692;Laerm;49838;51.798;10.954;2024-02-26T11:47:09;58.33;40.08;73.53;;
63692;Laerm;49838;51.798;10.954;2024-02-26T11:49:37;60.88;42.07;83.50;;
63692;Laerm;49838;51.798;10.954;2024-02-26T11:52:07;53.62;40.14;73.47;;
63692;Laerm;49838;51.798;10.954;2024-02-26T11:54:45;58.46;40.13;73.38;;
63692;Laerm;49838;51.798;10.954;2024-02-26T11:57:20;57.79;39.15;71.13;;
63692;Laerm;49838;51.798;10.954;2024-02-26T11:59:48;58.95;40.37;77.74;;
63692;Laerm;49838;51.798;10.954;2024-02-26T12:02:44;59.22;42.21;72.02;;
63692;Laerm;49838;51.798;10.954;2024-02-26T12:05:13;59.81;41.91;74.34;;
63692;Laerm;49838;51.798;10.954;2024-02-26T12:07:45;56.74;40.31;73.21;;
63692;Laerm;49838;51.798;10.954;2024-02-26T12:10:22;57.02;41.71;71.33;;
63692;Laerm;49838;51.798;10.954;2024-02-26T12:12:58;59.16;41.51;72.95;;
63692;Laerm;49838;51.798;10.954;2024-02-26T12:15:30;56.72;40.28;72.94;;
63692;Laerm;49838;51.798;10.954;2024-02-26T12:18:00;64.10;51.39;75.94;;
63692;Laerm;49838;51.798;10.954;2024-02-26T12:20:28;65.04;44.60;81.55;;
63692;Laerm;49838;51.798;10.954;2024-02-26T12:22:57;62.81;42.04;80.48;;
63692;Laerm;49838;51.798;10.954;2024-02-26T12:25:25;56.85;41.21;75.04;;
63692;Laerm;49838;51.798;10.954;2024-02-26T12:27:53;53.44;40.62;69.29;;
63692;Laerm;49838;51.798;10.954;2024-02-26T12:30:20;64.58;39.46;85.86;;
63692;Laerm;49838;51.798;10.954;2024-02-26T12:32:48;62.46;40.47;80.38;;
63692;Laerm;49838;51.798;10.954;2024-02-26T12:35:16;58.71;39.29;79.61;;
63692;Laerm;49838;51.798;10.954;2024-02-26T12:37:43;56.46;39.54;72.12;;
63692;Laerm;49838;51.798;10.954;2024-02-26T12:40:12;44.76;39.22;58.11;;
63692;Laerm;49838;51.798;10.954;2024-02-26T12:42:39;56.54;39.39;73.08;;
63692;Laerm;49838;51.798;10.954;2024-02-26T12:45:08;59.87;39.24;79.18;;
63692;Laerm;49838;51.798;10.954;2024-02-26T12:47:37;48.54;38.68;70.58;;
63692;Laerm;49838;51.798;10.954;2024-02-26T12:50:06;57.83;39.64;73.96;;
63692;Laerm;49838;51.798;10.954;2024-02-26T12:52:33;59.69;40.22;77.50;;
63692;Laerm;49838;51.798;10.954;2024-02-26T12:55:01;56.34;40.48;70.65;;
63692;Laerm;49838;51.798;10.954;2024-02-26T12:57:31;61.69;40.28;79.91;;
63692;Laerm;49838;51.798;10.954;2024-02-26T12:59:59;63.35;40.08;82.58;;
63692;Laerm;49838;51.798;10.954;2024-02-26T13:02:27;52.37;38.54;73.86;;
63692;Laerm;49838;51.798;10.954;2024-02-26T13:04:55;60.10;39.84;76.85;;
63692;Laerm;49838;51.798;10.954;2024-02-26T13:07:23;57.12;40.13;72.13;;
63692;Laerm;49838;51.798;10.954;2024-02-26T13:09:51;55.02;38.17;71.44;;
63692;Laerm;49838;51.798;10.954;2024-02-26T13:12:18;55.10;37.85;74.13;;
63692;Laerm;49838;51.798;10.954;2024-02-26T13:14:47;54.20;37.35;69.41;;
63692;Laerm;49838;51.798;10.954;2024-02-26T13:17:21;60.30;37.69;74.97;;
63692;Laerm;49838;51.798;10.954;2024-02-26T13:19:51;60.47;37.75;76.04;;
63692;Laerm;49838;51.798;10.954;2024-02-26T13:22:20;58.07;37.92;72.96;;
63692;Laerm;49838;51.798;10.954;2024-02-26T13:24:53;54.79;38.86;70.70;;
63692;Laerm;49838;51.798;10.954;2024-02-26T13:27:21;56.82;39.31;73.21;;
63692;Laerm;49838;51.798;10.954;2024-02-26T13:30:02;54.03;39.78;70.75;;
63692;Laerm;49838;51.798;10.954;2024-02-26T13:32:32;56.72;39.97;79.33;;
63692;Laerm;49838;51.798;10.954;2024-02-26T13:35:07;59.10;41.73;76.60;;
63692;Laerm;49838;51.798;10.954;2024-02-26T13:37:35;54.20;42.91;69.22;;